Armony — 5IM517 — position and weather

sailwx.info

Track history (hours):
 
Tides and Currents Weather Stations Pressure Air Temp Water Temp Dewpoint Dewpoint Depression Visibility Wind Speed Wind Dir Waves Ship Positions

Armony

Last reported at 2016-Aug-10 16:12 UTC. Time now 2016-Sep-01 03:37 UTC.
Position N 40°59' E 028°60'.
Warning: this ship's position is 21 days out of date.

Length 70 m; draft 5 m.

Type: Ship. MMSI: 677041700.

Date/timePositionNaut miles runAvg speedWind from/ knotsBaromVisibWave heightAir tempDewpointWater temp
2016-Aug-10 16:12N 40°59' E 028°60'5 6.1
2016-Aug-10 15:24N 40°55' E 029°03'6 6.9
2016-Aug-10 14:34N 40°52' E 029°10'0 0.1
2016-Aug-10 13:28N 40°52' E 029°10'0 0.0
2016-Aug-10 12:22N 40°52' E 029°10'0 0.0
2016-Aug-10 11:28N 40°52' E 029°10'0 0.0
2016-Aug-10 09:28N 40°52' E 029°10'0 0.0
2016-Aug-10 08:16N 40°52' E 029°10'0 0.0
2016-Aug-10 07:04N 40°52' E 029°10'0 0.0
2016-Aug-10 06:16N 40°52' E 029°10'0 0.0
2016-Aug-10 05:28N 40°52' E 029°10'0 0.0
2016-Aug-10 04:28N 40°52' E 029°10'0 0.0
2016-Aug-10 03:04N 40°52' E 029°10'0 0.1
2016-Aug-10 02:28N 40°52' E 029°10'0 0.1
2016-Aug-10 01:28N 40°52' E 029°10'0 0.0
2016-Aug-10 00:28N 40°52' E 029°10'0 0.0
2016-Aug-09 23:10N 40°52' E 029°10'0 0.0
2016-Aug-09 22:28N 40°52' E 029°10'0 0.0
2016-Aug-09 21:28N 40°52' E 029°10'0 0.0
2016-Aug-09 20:28N 40°52' E 029°10'0 0.0
2016-Aug-09 19:28N 40°52' E 029°10'0 0.0
2016-Aug-09 18:22N 40°52' E 029°10'0 0.1
2016-Aug-09 17:28N 40°52' E 029°10'0 0.1
2016-Aug-09 16:28N 40°52' E 029°10'0 0.0
2016-Aug-09 15:28N 40°52' E 029°10'0 0.0
2016-Aug-09 14:28N 40°52' E 029°10'0 0.0
2016-Aug-09 12:16N 40°52' E 029°10'0 0.0
2016-Aug-09 11:22N 40°52' E 029°10'0 0.0
2016-Aug-09 10:28N 40°52' E 029°10'0 0.0
2016-Aug-09 09:28N 40°52' E 029°10'0 0.0
2016-Aug-09 08:28N 40°52' E 029°10'0 0.0
2016-Aug-09 07:28N 40°52' E 029°10'0 0.1
2016-Aug-09 06:22N 40°52' E 029°10'0 0.0
2016-Aug-09 04:22N 40°52' E 029°10'0 0.0
2016-Aug-09 03:28N 40°52' E 029°10'0 0.0
2016-Aug-09 02:22N 40°52' E 029°10'0 0.1
2016-Aug-09 01:22N 40°52' E 029°10'0 0.0
2016-Aug-09 00:28N 40°52' E 029°10'0 0.0
2016-Aug-08 23:28N 40°52' E 029°10'0 0.0
2016-Aug-08 22:28N 40°52' E 029°10'0 0.0
2016-Aug-08 21:28N 40°52' E 029°10'0 0.0
2016-Aug-08 20:28N 40°52' E 029°10'0 0.0
2016-Aug-08 19:28N 40°52' E 029°10'0 0.0
2016-Aug-08 18:28N 40°52' E 029°10'0 0.0
2016-Aug-08 17:04N 40°52' E 029°10'0 0.0
2016-Aug-08 16:28N 40°52' E 029°10'0 0.0
2016-Aug-08 15:28N 40°52' E 029°10'0 0.0
2016-Aug-08 14:28N 40°52' E 029°10'0 0.0
2016-Aug-08 13:16N 40°52' E 029°10'0 0.0
2016-Aug-08 12:28N 40°52' E 029°10'0 0.0
2016-Aug-08 11:04N 40°52' E 029°10'2 4.2
2016-Aug-08 10:33N 40°50' E 029°09'7 6.6
2016-Aug-08 09:33N 40°50' E 028°60'  
Track history (hours):
 
Tides and Currents Weather Stations Pressure Air Temp Water Temp Dewpoint Dewpoint Depression Visibility Wind Speed Wind Dir Waves Ship Positions

Armony

Last reported at 2016-Aug-10 16:12 UTC. Time now 2016-Sep-01 03:37 UTC.
Position N 40°59' E 028°60'.
Warning: this ship's position is 21 days out of date.

Length 70 m; draft 5 m.

Type: Ship. MMSI: 677041700.

Date/timePositionNaut miles runAvg speedWind from/ knotsBaromVisibWave heightAir tempDewpointWater temp
2016-Aug-10 16:12N 40°59' E 028°60'5 6.1
2016-Aug-10 15:24N 40°55' E 029°03'6 6.9
2016-Aug-10 14:34N 40°52' E 029°10'0 0.1
2016-Aug-10 13:28N 40°52' E 029°10'0 0.0
2016-Aug-10 12:22N 40°52' E 029°10'0 0.0
2016-Aug-10 11:28N 40°52' E 029°10'0 0.0
2016-Aug-10 09:28N 40°52' E 029°10'0 0.0
2016-Aug-10 08:16N 40°52' E 029°10'0 0.0
2016-Aug-10 07:04N 40°52' E 029°10'0 0.0
2016-Aug-10 06:16N 40°52' E 029°10'0 0.0
2016-Aug-10 05:28N 40°52' E 029°10'0 0.0
2016-Aug-10 04:28N 40°52' E 029°10'0 0.0
2016-Aug-10 03:04N 40°52' E 029°10'0 0.1
2016-Aug-10 02:28N 40°52' E 029°10'0 0.1
2016-Aug-10 01:28N 40°52' E 029°10'0 0.0
2016-Aug-10 00:28N 40°52' E 029°10'0 0.0
2016-Aug-09 23:10N 40°52' E 029°10'0 0.0
2016-Aug-09 22:28N 40°52' E 029°10'0 0.0
2016-Aug-09 21:28N 40°52' E 029°10'0 0.0
2016-Aug-09 20:28N 40°52' E 029°10'0 0.0
2016-Aug-09 19:28N 40°52' E 029°10'0 0.0
2016-Aug-09 18:22N 40°52' E 029°10'0 0.1
2016-Aug-09 17:28N 40°52' E 029°10'0 0.1
2016-Aug-09 16:28N 40°52' E 029°10'0 0.0
2016-Aug-09 15:28N 40°52' E 029°10'0 0.0
2016-Aug-09 14:28N 40°52' E 029°10'0 0.0
2016-Aug-09 12:16N 40°52' E 029°10'0 0.0
2016-Aug-09 11:22N 40°52' E 029°10'0 0.0
2016-Aug-09 10:28N 40°52' E 029°10'0 0.0
2016-Aug-09 09:28N 40°52' E 029°10'0 0.0
2016-Aug-09 08:28N 40°52' E 029°10'0 0.0
2016-Aug-09 07:28N 40°52' E 029°10'0 0.1
2016-Aug-09 06:22N 40°52' E 029°10'0 0.0
2016-Aug-09 04:22N 40°52' E 029°10'0 0.0
2016-Aug-09 03:28N 40°52' E 029°10'0 0.0
2016-Aug-09 02:22N 40°52' E 029°10'0 0.1
2016-Aug-09 01:22N 40°52' E 029°10'0 0.0
2016-Aug-09 00:28N 40°52' E 029°10'0 0.0
2016-Aug-08 23:28N 40°52' E 029°10'0 0.0
2016-Aug-08 22:28N 40°52' E 029°10'0 0.0
2016-Aug-08 21:28N 40°52' E 029°10'0 0.0
2016-Aug-08 20:28N 40°52' E 029°10'0 0.0
2016-Aug-08 19:28N 40°52' E 029°10'0 0.0
2016-Aug-08 18:28N 40°52' E 029°10'0 0.0
2016-Aug-08 17:04N 40°52' E 029°10'0 0.0
2016-Aug-08 16:28N 40°52' E 029°10'0 0.0
2016-Aug-08 15:28N 40°52' E 029°10'0 0.0
2016-Aug-08 14:28N 40°52' E 029°10'0 0.0
2016-Aug-08 13:16N 40°52' E 029°10'0 0.0
2016-Aug-08 12:28N 40°52' E 029°10'0 0.0
2016-Aug-08 11:04N 40°52' E 029°10'2 4.2
2016-Aug-08 10:33N 40°50' E 029°09'7 6.6
2016-Aug-08 09:33N 40°50' E 028°60'  

Dump ship's entire track history